createdAt,value
2019-02-19T00:00:57.365Z,76.43
2019-02-19T00:01:57.840Z,76.12
2019-02-19T00:02:57.275Z,76.53
2019-02-19T00:03:57.264Z,76.64
2019-02-19T00:04:57.244Z,76.74
2019-02-19T00:05:57.224Z,76.74
2019-02-19T00:06:57.231Z,76.95
2019-02-19T00:07:57.178Z,75.92
2019-02-19T00:08:57.182Z,76.02
2019-02-19T00:09:57.184Z,76.12
2019-02-19T00:10:57.130Z,76.12
2019-02-19T00:11:57.181Z,76.32
2019-02-19T00:12:57.171Z,76.95
2019-02-19T00:13:57.123Z,77.47
2019-02-19T00:14:57.104Z,77.36
2019-02-19T00:15:57.100Z,77.61
2019-02-19T00:16:57.103Z,77.36
2019-02-19T00:17:57.105Z,77.50
2019-02-19T00:18:57.054Z,77.40
2019-02-19T00:19:57.265Z,77.71
2019-02-19T00:20:57.151Z,78.33
2019-02-19T00:21:57.215Z,77.29
2019-02-19T00:22:57.124Z,77.81
2019-02-19T00:23:57.300Z,77.61
2019-02-19T00:24:57.209Z,77.71
2019-02-19T00:25:57.113Z,77.92
2019-02-19T00:26:57.095Z,77.29
2019-02-19T00:27:57.053Z,77.36
2019-02-19T00:28:57.115Z,77.40
2019-02-19T00:29:57.080Z,78.54
2019-02-19T00:30:57.049Z,78.33
2019-02-19T00:31:57.131Z,78.02
2019-02-19T00:32:57.066Z,78.64
2019-02-19T00:33:57.067Z,78.02
2019-02-19T00:34:57.117Z,78.12
2019-02-19T00:35:56.947Z,77.92
2019-02-19T00:36:57.010Z,78.85
2019-02-19T00:37:56.993Z,78.54
2019-02-19T00:38:56.977Z,78.23
2019-02-19T00:39:57.099Z,78.54
2019-02-19T00:40:57.028Z,78.96
2019-02-19T00:41:56.890Z,78.64
2019-02-19T00:42:56.898Z,77.92
2019-02-19T00:43:56.903Z,78.96
2019-02-19T00:44:56.836Z,78.54
2019-02-19T00:45:56.919Z,79.16
2019-02-19T00:46:56.847Z,79.06
2019-02-19T00:47:57.214Z,78.64
2019-02-19T00:48:56.854Z,79.99
2019-02-19T00:49:56.908Z,80.19
2019-02-19T00:50:56.923Z,80.71
2019-02-19T00:51:56.858Z,79.47
2019-02-19T00:52:56.891Z,79.47
2019-02-19T00:53:56.803Z,79.47
2019-02-19T00:54:56.865Z,79.68
2019-02-19T00:55:56.824Z,79.16
2019-02-19T00:56:56.799Z,78.75
2019-02-19T00:57:56.978Z,78.85
2019-02-19T00:58:56.856Z,79.16
2019-02-19T00:59:56.689Z,79.99
2019-02-19T01:00:56.721Z,78.96
2019-02-19T01:01:56.623Z,80.09
2019-02-19T01:02:56.704Z,80.61
2019-02-19T01:03:56.784Z,80.30
2019-02-19T01:04:56.718Z,80.19
2019-02-19T01:05:56.622Z,81.02
2019-02-19T01:06:56.690Z,80.92
2019-02-19T01:07:56.772Z,80.92
2019-02-19T01:08:57.424Z,81.02
2019-02-19T01:09:56.708Z,81.54
2019-02-19T01:10:56.629Z,81.51
2019-02-19T01:11:56.766Z,80.95
2019-02-19T01:12:56.920Z,80.74
2019-02-19T01:13:56.664Z,80.08
2019-02-19T01:14:56.559Z,79.02
2019-02-19T01:15:56.690Z,78.08
2019-02-19T01:16:56.559Z,78.88
2019-02-19T01:17:56.653Z,79.02
2019-02-19T01:18:56.641Z,79.22
2019-02-19T01:19:56.720Z,78.50
2019-02-19T01:20:56.521Z,78.19
2019-02-19T01:21:56.531Z,78.67
2019-02-19T01:22:56.532Z,78.50
2019-02-19T01:23:56.509Z,78.88
2019-02-19T01:24:56.908Z,79.08
2019-02-19T01:25:56.435Z,79.22
2019-02-19T01:26:56.663Z,78.67
2019-02-19T01:27:56.444Z,79.08
2019-02-19T01:28:58.260Z,79.39
2019-02-19T01:29:56.726Z,79.49
2019-02-19T01:30:56.457Z,78.94
2019-02-19T01:31:56.413Z,78.98
2019-02-19T01:32:56.518Z,78.56
2019-02-19T01:33:56.509Z,78.77
2019-02-19T01:34:56.567Z,78.42
2019-02-19T01:35:56.357Z,78.56
2019-02-19T01:36:56.419Z,78.15
2019-02-19T01:37:56.297Z,78.42
2019-02-19T01:38:56.405Z,78.98
2019-02-19T01:39:56.401Z,78.22
2019-02-19T01:40:56.369Z,78.74
2019-02-19T01:41:56.420Z,78.42
2019-02-19T01:42:56.389Z,78.11
2019-02-19T01:43:56.225Z,79.05
2019-02-19T01:44:56.475Z,78.53
2019-02-19T01:45:56.472Z,78.46
2019-02-19T01:46:56.306Z,78.74
2019-02-19T01:47:56.352Z,78.15
2019-02-19T01:48:56.292Z,77.81
2019-02-19T01:49:56.212Z,78.77
2019-02-19T01:50:56.355Z,79.36
2019-02-19T01:51:56.273Z,79.19
2019-02-19T01:52:56.347Z,78.67
2019-02-19T01:53:56.363Z,79.60
2019-02-19T01:54:56.099Z,79.80
2019-02-19T01:55:56.163Z,80.11
2019-02-19T01:56:56.150Z,80.63
2019-02-19T01:57:56.176Z,80.70
2019-02-19T01:58:56.025Z,80.70
2019-02-19T01:59:56.040Z,80.63
2019-02-19T02:00:56.075Z,80.43
2019-02-19T02:01:56.380Z,80.32
2019-02-19T02:02:56.078Z,80.43
2019-02-19T02:03:56.208Z,80.43
2019-02-19T02:04:56.258Z,80.94
2019-02-19T02:05:56.167Z,80.84
2019-02-19T02:06:56.205Z,80.84
2019-02-19T02:07:56.174Z,80.74
2019-02-19T02:08:56.107Z,81.11
2019-02-19T02:09:56.012Z,80.94
2019-02-19T02:10:55.979Z,81.32
2019-02-19T02:11:56.218Z,81.35
2019-02-19T02:12:56.046Z,81.56
2019-02-19T02:13:55.889Z,81.77
2019-02-19T02:14:55.970Z,81.15
2019-02-19T02:15:56.004Z,81.35
2019-02-19T02:16:55.996Z,81.35
2019-02-19T02:17:55.939Z,81.35
2019-02-19T02:18:55.894Z,81.32
2019-02-19T02:19:55.842Z,81.35
2019-02-19T02:20:55.914Z,81.77
2019-02-19T02:21:55.947Z,81.46
2019-02-19T02:22:55.883Z,81.87
2019-02-19T02:23:55.933Z,82.18
2019-02-19T02:24:55.819Z,81.87
2019-02-19T02:25:55.673Z,82.66
2019-02-19T02:26:55.692Z,82.66
2019-02-19T02:27:55.650Z,83.01
2019-02-19T02:28:55.651Z,83.42
2019-02-19T02:29:55.681Z,82.80
2019-02-19T02:30:55.623Z,83.73
2019-02-19T02:31:55.648Z,82.80
2019-02-19T02:32:55.608Z,83.11
2019-02-19T02:33:55.590Z,83.53
2019-02-19T02:34:55.579Z,83.18
2019-02-19T02:35:55.577Z,83.49
2019-02-19T02:36:55.570Z,83.63
2019-02-19T02:37:55.575Z,83.59
2019-02-19T02:38:55.540Z,83.59
2019-02-19T02:39:55.526Z,83.90
2019-02-19T02:40:55.512Z,84.00
2019-02-19T02:41:55.595Z,83.94
2019-02-19T02:42:55.492Z,83.80
2019-02-19T02:43:55.532Z,84.00
2019-02-19T02:44:55.482Z,85.24
2019-02-19T02:45:55.485Z,85.14
2019-02-19T02:46:55.463Z,84.83
2019-02-19T02:47:55.467Z,83.90
2019-02-19T02:48:55.429Z,84.89
2019-02-19T02:49:55.416Z,83.90
2019-02-19T02:50:55.412Z,84.48
2019-02-19T02:51:55.408Z,84.07
2019-02-19T02:52:55.402Z,83.97
2019-02-19T02:53:55.399Z,83.76
2019-02-19T02:54:55.375Z,83.97
2019-02-19T02:55:55.354Z,84.28
2019-02-19T02:56:55.346Z,84.38
2019-02-19T02:57:55.353Z,83.86
2019-02-19T02:58:56.171Z,84.86
2019-02-19T02:59:55.314Z,85.06
2019-02-19T03:00:55.303Z,85.52
2019-02-19T03:01:55.292Z,85.47
2019-02-19T03:02:55.289Z,85.27
2019-02-19T03:03:55.297Z,85.37
2019-02-19T03:04:55.257Z,85.58
2019-02-19T03:05:55.270Z,85.27
2019-02-19T03:06:55.235Z,85.58
2019-02-19T03:07:55.239Z,85.44
2019-02-19T03:08:55.247Z,84.75
2019-02-19T03:09:55.211Z,84.75
2019-02-19T03:10:55.199Z,84.92
2019-02-19T03:11:55.237Z,85.47
2019-02-19T03:12:55.169Z,85.27
2019-02-19T03:13:55.202Z,85.33
2019-02-19T03:14:55.155Z,85.54
2019-02-19T03:16:02.287Z,85.06
2019-02-19T03:16:56.134Z,85.17
2019-02-19T03:17:55.144Z,85.54
2019-02-19T03:18:55.113Z,85.37
2019-02-19T03:19:55.123Z,85.37
2019-02-19T03:20:55.121Z,85.27
2019-02-19T03:21:55.080Z,85.68
2019-02-19T03:22:55.068Z,85.64
2019-02-19T03:23:55.100Z,85.27
2019-02-19T03:24:55.078Z,85.89
2019-02-19T03:25:55.034Z,85.95
2019-02-19T03:26:55.055Z,85.78
2019-02-19T03:27:55.011Z,86.36
2019-02-19T03:28:55.011Z,86.26
2019-02-19T03:29:56.749Z,86.20
2019-02-19T03:30:54.993Z,86.16
2019-02-19T03:31:54.994Z,86.88
2019-02-19T03:32:54.966Z,87.13
2019-02-19T03:33:54.956Z,87.23
2019-02-19T03:34:56.667Z,87.13
2019-02-19T03:35:54.935Z,87.23
2019-02-19T03:36:54.927Z,87.19
2019-02-19T03:37:54.912Z,87.19
2019-02-19T03:38:54.895Z,87.19
2019-02-19T03:39:54.933Z,87.23
2019-02-19T03:40:54.874Z,87.13
2019-02-19T03:41:54.881Z,87.19
2019-02-19T03:42:54.848Z,86.98
2019-02-19T03:43:54.842Z,86.98
2019-02-19T03:44:54.882Z,86.88
2019-02-19T03:45:54.833Z,87.08
2019-02-19T03:46:54.816Z,86.88
2019-02-19T03:47:54.801Z,87.40
2019-02-19T03:48:54.807Z,86.98
2019-02-19T03:49:56.675Z,87.19
2019-02-19T03:50:54.782Z,86.98
2019-02-19T03:51:54.757Z,86.98
2019-02-19T03:52:54.757Z,86.98
2019-02-19T03:53:54.760Z,87.08
2019-02-19T03:54:54.731Z,87.08
2019-02-19T03:55:54.746Z,86.74
2019-02-19T03:56:54.749Z,86.98
2019-02-19T03:57:54.752Z,87.15
2019-02-19T03:58:54.693Z,87.50
2019-02-19T03:59:54.670Z,87.71
2019-02-19T04:00:54.697Z,87.81
2019-02-19T04:01:54.660Z,87.71
2019-02-19T04:02:54.658Z,87.50
2019-02-19T04:03:54.645Z,87.71
2019-02-19T04:04:54.622Z,88.32
2019-02-19T04:05:54.643Z,87.81
2019-02-19T04:06:54.600Z,88.32
2019-02-19T04:07:54.592Z,87.81
2019-02-19T04:08:54.580Z,88.64
2019-02-19T04:09:54.626Z,88.95
2019-02-19T04:10:54.553Z,88.43
2019-02-19T04:11:54.565Z,88.32
2019-02-19T04:12:54.536Z,88.95
2019-02-19T04:13:54.526Z,88.95
2019-02-19T04:14:54.534Z,88.84
2019-02-19T04:15:54.505Z,87.92
2019-02-19T04:16:54.520Z,88.95
2019-02-19T04:17:54.481Z,89.36
2019-02-19T04:18:54.495Z,89.98
2019-02-19T04:19:54.459Z,89.36
2019-02-19T04:20:54.456Z,89.46
2019-02-19T04:21:54.471Z,89.87
2019-02-19T04:22:54.432Z,90.08
2019-02-19T04:23:54.423Z,90.08
2019-02-19T04:24:54.439Z,90.80
2019-02-19T04:25:54.401Z,91.11
2019-02-19T04:26:54.414Z,90.80
2019-02-19T04:27:54.440Z,91.22
2019-02-19T04:28:54.392Z,91.11
2019-02-19T04:29:54.354Z,90.59
2019-02-19T04:30:54.362Z,90.70
2019-02-19T04:31:54.416Z,90.80
2019-02-19T04:32:54.359Z,90.70
2019-02-19T04:33:54.312Z,92.04
2019-02-19T04:34:54.298Z,91.01
2019-02-19T04:35:54.297Z,91.01
2019-02-19T04:36:54.280Z,91.73
2019-02-19T04:37:54.297Z,91.11
2019-02-19T04:38:54.261Z,92.25
2019-02-19T04:39:54.247Z,92.66
2019-02-19T04:40:54.239Z,91.73
2019-02-19T04:41:54.236Z,91.94
2019-02-19T04:42:54.246Z,91.42
2019-02-19T04:43:54.209Z,91.42
2019-02-19T04:44:54.206Z,92.04
2019-02-19T04:45:54.221Z,91.52
2019-02-19T04:46:54.181Z,91.73
2019-02-19T04:47:54.195Z,90.80
2019-02-19T04:48:54.157Z,91.01
2019-02-19T04:49:54.146Z,90.80
2019-02-19T04:50:54.141Z,91.94
2019-02-19T04:51:54.122Z,92.25
2019-02-19T04:52:54.111Z,91.42
2019-02-19T04:53:54.124Z,92.66
2019-02-19T04:54:54.103Z,92.46
2019-02-19T04:55:54.088Z,91.63
2019-02-19T04:56:54.073Z,92.04
2019-02-19T04:57:54.064Z,91.63
2019-02-19T04:58:54.047Z,91.94
2019-02-19T04:59:54.059Z,91.52
2019-02-19T05:00:54.023Z,91.46
2019-02-19T05:01:54.020Z,92.04
2019-02-19T05:02:54.021Z,92.97
2019-02-19T05:03:53.992Z,92.66
2019-02-19T05:04:54.002Z,92.55
2019-02-19T05:05:53.981Z,93.07
2019-02-19T05:06:53.961Z,93.59
2019-02-19T05:07:54.556Z,93.18
2019-02-19T05:08:54.307Z,93.69
2019-02-19T05:09:55.340Z,93.07
2019-02-19T05:10:54.068Z,93.59
2019-02-19T05:11:54.334Z,93.38
2019-02-19T05:12:54.335Z,93.28
2019-02-19T05:13:54.173Z,93.38
2019-02-19T05:14:54.490Z,93.59
2019-02-19T05:15:54.048Z,92.97
2019-02-19T05:35:06.342Z,93.38
2019-02-19T05:36:06.663Z,93.28
2019-02-19T05:37:05.788Z,92.66
2019-02-19T05:38:06.227Z,92.55
2019-02-19T05:39:05.689Z,93.38
2019-02-19T05:40:05.705Z,92.25
2019-02-19T05:41:05.676Z,92.14
2019-02-19T05:42:05.796Z,91.63
2019-02-19T05:43:05.589Z,92.25
2019-02-19T05:44:05.597Z,93.34
2019-02-19T05:45:05.583Z,93.38
2019-02-19T05:46:05.630Z,93.59
2019-02-19T05:47:05.535Z,92.97
2019-02-19T05:48:05.585Z,93.28
2019-02-19T05:49:05.634Z,91.94
2019-02-19T05:50:05.585Z,92.04
2019-02-19T05:51:05.586Z,92.51
2019-02-19T05:52:05.500Z,92.55
2019-02-19T05:53:05.616Z,93.69
2019-02-19T05:54:05.566Z,92.86
2019-02-19T05:55:05.455Z,92.97
2019-02-19T05:56:05.685Z,93.28
2019-02-19T05:57:05.472Z,91.63
2019-02-19T05:58:05.595Z,91.32
2019-02-19T05:59:05.571Z,91.01
2019-02-19T06:00:05.400Z,91.11
2019-02-19T06:01:05.568Z,91.01
2019-02-19T06:02:05.660Z,90.59
2019-02-19T06:03:05.489Z,90.80
2019-02-19T06:04:05.542Z,91.01
2019-02-19T06:05:05.983Z,90.91
2019-02-19T06:06:05.428Z,90.80
2019-02-19T06:07:05.539Z,89.87
2019-02-19T06:08:05.453Z,89.87
2019-02-19T06:09:05.573Z,90.59
2019-02-19T06:10:05.590Z,91.01
2019-02-19T06:11:05.472Z,90.28
2019-02-19T06:12:05.604Z,91.32
2019-02-19T06:13:05.598Z,90.39
2019-02-19T06:14:05.545Z,90.49
2019-02-19T06:15:05.410Z,90.91
2019-02-19T06:16:05.511Z,90.19
2019-02-19T06:17:05.450Z,91.01
2019-02-19T06:18:05.465Z,90.84
2019-02-19T06:19:05.498Z,90.59
2019-02-19T10:12:49.497Z,74.08
2019-02-19T10:13:55.760Z,74.66
2019-02-19T10:14:50.928Z,73.44
2019-02-19T10:15:49.131Z,73.74
2019-02-19T10:16:49.331Z,74.05
2019-02-19T10:17:49.481Z,73.85
2019-02-19T10:18:53.186Z,73.64
2019-02-19T10:19:49.646Z,74.05
2019-02-19T10:20:59.685Z,74.05
2019-02-19T10:21:48.953Z,74.46
2019-02-19T10:22:49.512Z,74.98
2019-02-19T10:23:49.546Z,74.87
2019-02-19T10:24:49.313Z,74.05
2019-02-19T10:25:49.678Z,74.63
2019-02-19T10:26:51.611Z,74.02
2019-02-19T10:28:06.908Z,75.04
2019-02-19T10:28:52.597Z,74.43
2019-02-19T10:30:25.039Z,73.40
2019-02-19T10:30:49.527Z,72.38
2019-02-19T10:31:50.270Z,71.62
2019-02-19T11:33:39.078Z,65.91
2019-02-19T11:34:38.919Z,64.30
2019-02-19T11:35:38.714Z,66.31
2019-02-19T11:36:38.889Z,65.40
2019-02-19T11:37:38.818Z,63.79
2019-02-19T11:38:39.109Z,64.61
2019-02-19T11:39:38.735Z,66.45
2019-02-19T11:40:38.874Z,65.43
2019-02-19T11:41:38.622Z,64.89
2019-02-19T11:42:39.216Z,64.20
2019-02-19T11:43:39.001Z,63.79
2019-02-19T11:44:38.573Z,64.71
2019-02-19T11:45:38.560Z,66.45
2019-02-19T11:46:38.679Z,66.35
2019-02-19T11:47:38.921Z,66.35
2019-02-19T11:48:38.761Z,66.86
2019-02-19T11:49:38.572Z,66.31
2019-02-19T11:50:38.570Z,65.50
2019-02-19T11:51:38.530Z,66.08
2019-02-19T11:52:38.513Z,66.18
2019-02-19T11:53:38.450Z,66.18
2019-02-19T11:54:38.391Z,65.74
2019-02-19T11:55:38.362Z,65.95
2019-02-19T11:56:38.393Z,64.11
2019-02-19T11:57:38.353Z,64.11
2019-02-19T11:58:38.483Z,65.54
2019-02-19T11:59:38.346Z,65.84
2019-02-19T12:00:38.545Z,65.98
2019-02-19T12:01:38.271Z,64.96
2019-02-19T12:02:38.302Z,64.14
2019-02-19T12:03:38.598Z,64.14
2019-02-19T12:04:38.329Z,64.14
2019-02-19T12:05:38.361Z,65.47
2019-02-19T12:06:39.597Z,66.01
2019-02-19T12:07:38.307Z,65.30
2019-02-19T12:08:39.286Z,65.30
2019-02-19T12:09:38.346Z,65.70
2019-02-19T12:10:38.223Z,65.73
2019-02-19T12:11:38.691Z,66.45
2019-02-19T12:12:38.288Z,66.35
2019-02-19T12:13:38.371Z,66.45
2019-02-19T12:14:38.389Z,66.14
2019-02-19T12:15:38.402Z,64.33
2019-02-19T12:16:39.272Z,65.97
2019-02-19T12:17:38.428Z,66.38
2019-02-19T12:18:45.828Z,66.04
2019-02-19T12:19:39.605Z,66.45
2019-02-19T12:20:38.305Z,66.25
2019-02-19T12:21:38.252Z,66.35
2019-02-19T12:22:41.073Z,66.21
2019-02-19T12:23:39.372Z,66.45
2019-02-19T12:24:38.547Z,64.61
2019-02-19T12:25:38.494Z,65.02
2019-02-19T12:26:38.423Z,66.25
2019-02-19T12:27:38.240Z,65.84
2019-02-19T12:28:38.400Z,66.35
2019-02-19T12:29:38.842Z,65.02
2019-02-19T12:30:38.747Z,66.14
2019-02-19T12:31:40.787Z,65.43
2019-02-19T12:32:38.117Z,66.25
2019-02-19T12:33:38.198Z,65.36
2019-02-19T12:34:38.449Z,65.87
2019-02-19T12:35:38.144Z,66.07
2019-02-19T12:36:38.318Z,65.97
2019-02-19T12:37:38.639Z,65.66
2019-02-19T12:38:38.740Z,65.97
2019-02-19T12:39:51.843Z,64.43
2019-02-19T12:42:30.251Z,66.38
2019-02-19T12:42:59.196Z,66.17
2019-02-19T12:43:59.182Z,66.17
2019-02-19T12:45:02.434Z,66.89
2019-02-19T12:45:59.390Z,66.17
2019-02-19T12:46:59.111Z,66.38
2019-02-19T12:47:59.072Z,66.38
2019-02-19T12:48:58.988Z,65.53
2019-02-19T12:50:06.246Z,66.66
2019-02-19T12:50:59.344Z,66.14
2019-02-19T12:51:59.194Z,65.73
2019-02-19T12:52:59.101Z,65.91
2019-02-19T12:53:59.237Z,63.66
2019-02-19T12:54:59.258Z,64.27
2019-02-19T12:56:59.053Z,63.45
2019-02-19T12:57:59.415Z,63.39
2019-02-19T12:59:00.066Z,63.96
2019-02-19T13:00:02.757Z,63.76
2019-02-19T13:01:00.192Z,63.15
2019-02-19T13:01:59.079Z,63.28
2019-02-19T13:03:08.709Z,64.10
2019-02-19T13:03:59.221Z,64.40
2019-02-19T13:04:59.224Z,63.79
2019-02-19T13:06:00.905Z,64.20
2019-02-19T13:06:59.124Z,64.10
2019-02-19T13:07:59.229Z,64.00
2019-02-19T13:09:07.810Z,65.43
2019-02-19T13:09:58.953Z,63.79
2019-02-19T13:11:00.040Z,64.00
2019-02-19T13:12:00.657Z,63.66
2019-02-19T13:12:58.722Z,63.25
2019-02-19T13:13:58.845Z,62.84
2019-02-19T13:14:59.148Z,62.98
2019-02-19T13:15:59.449Z,63.86
2019-02-19T13:16:58.936Z,63.18
2019-02-19T13:17:59.188Z,63.18
2019-02-19T13:19:03.562Z,63.79
2019-02-19T13:20:00.543Z,64.10
2019-02-19T13:21:01.992Z,64.30
2019-02-19T13:21:58.761Z,63.72
2019-02-19T13:22:58.985Z,63.82
2019-02-19T13:23:58.978Z,64.13
2019-02-19T13:24:58.816Z,64.64
2019-02-19T13:25:58.806Z,65.25
2019-02-19T13:26:58.683Z,65.36
2019-02-19T13:29:01.930Z,66.00
2019-02-19T13:30:01.083Z,66.31
2019-02-19T13:31:01.888Z,66.61
2019-02-19T13:32:00.288Z,66.51
2019-02-19T13:33:00.121Z,66.61
2019-02-19T13:34:01.093Z,65.69
2019-02-19T13:35:00.144Z,66.10
2019-02-19T13:36:00.153Z,65.59
2019-02-19T13:37:00.160Z,65.80
2019-02-19T13:38:00.112Z,66.00
2019-02-19T13:39:00.180Z,66.51
2019-02-19T13:40:00.299Z,65.59
2019-02-19T13:41:00.243Z,66.51
2019-02-19T13:42:00.005Z,66.58
2019-02-19T13:43:00.096Z,66.17
2019-02-19T13:44:00.013Z,65.56
2019-02-19T13:45:00.321Z,64.54
2019-02-19T13:46:00.327Z,64.92
2019-02-19T13:47:00.297Z,65.73
2019-02-19T13:48:05.738Z,64.40
2019-02-19T13:49:01.069Z,64.30
2019-02-19T13:50:00.217Z,64.20
2019-02-19T13:51:00.016Z,64.30
2019-02-19T13:52:00.132Z,65.33
2019-02-19T13:52:59.921Z,64.40
2019-02-19T13:54:00.052Z,65.12
2019-02-19T13:55:00.233Z,64.51
2019-02-19T13:56:02.286Z,63.92
2019-02-19T13:57:00.163Z,64.23
2019-02-19T13:58:00.025Z,63.82
2019-02-19T13:59:00.299Z,63.54
2019-02-19T14:00:00.475Z,65.90
2019-02-19T14:01:00.385Z,65.56
2019-02-19T14:02:01.186Z,65.39
2019-02-19T14:03:00.422Z,64.67
2019-02-19T14:04:00.245Z,66.31
2019-02-19T14:05:00.867Z,66.51
2019-02-19T14:06:02.051Z,66.24
2019-02-19T14:07:00.054Z,66.00
2019-02-19T14:07:59.891Z,65.80
2019-02-19T14:09:02.055Z,65.69
2019-02-19T14:10:00.291Z,65.21
2019-02-19T14:11:03.254Z,66.31
2019-02-19T14:12:00.113Z,65.42
2019-02-19T14:13:00.901Z,65.93
2019-02-19T14:13:59.984Z,66.44
2019-02-19T14:15:00.295Z,66.44
2019-02-19T14:16:01.000Z,66.61
2019-02-19T14:17:06.392Z,66.20
2019-02-19T14:17:59.635Z,66.51
2019-02-19T17:23:06.622Z,71.86
2019-02-19T17:24:06.463Z,71.75
2019-02-19T17:25:07.146Z,71.66
2019-02-19T17:26:06.348Z,71.75
2019-02-19T17:27:06.327Z,71.45
2019-02-19T17:28:06.308Z,72.81
2019-02-19T17:29:06.285Z,71.34
2019-02-19T17:30:06.296Z,71.86
2019-02-19T17:31:06.299Z,71.89
2019-02-19T17:32:06.260Z,71.58
2019-02-19T17:33:06.321Z,72.41
2019-02-19T17:34:06.252Z,72.30
2019-02-19T17:35:06.225Z,72.96
2019-02-19T17:36:06.255Z,72.75
2019-02-19T17:37:06.209Z,72.24
2019-02-19T17:38:14.414Z,72.64
2019-02-19T17:39:07.211Z,72.13
2019-02-19T17:40:06.174Z,72.58
2019-02-19T17:41:06.180Z,71.86
2019-02-19T17:42:06.193Z,72.68
2019-02-19T17:43:06.143Z,73.19
2019-02-19T17:44:06.134Z,72.78
2019-02-19T17:45:06.122Z,73.40
2019-02-19T17:46:06.124Z,73.40
2019-02-19T17:47:06.126Z,73.30
2019-02-19T17:48:06.135Z,73.30
2019-02-19T17:49:06.079Z,73.30
2019-02-19T17:50:06.074Z,73.40
2019-02-19T17:51:06.193Z,73.61
2019-02-19T17:52:06.070Z,73.40
2019-02-19T17:53:06.048Z,73.81
2019-02-19T17:54:06.025Z,73.54
2019-02-19T17:55:06.015Z,73.81
2019-02-19T17:56:06.079Z,73.64
2019-02-19T17:57:06.017Z,73.33
2019-02-19T17:58:05.991Z,74.46
2019-02-19T17:59:06.011Z,73.23
2019-02-19T18:00:05.977Z,73.54
2019-02-19T18:01:05.953Z,73.85
2019-02-19T18:02:05.968Z,73.98
2019-02-19T18:03:06.009Z,74.40
2019-02-19T18:04:05.933Z,74.50
2019-02-19T18:05:05.927Z,74.50
2019-02-19T18:06:05.971Z,74.50
2019-02-19T18:07:05.900Z,74.71
2019-02-19T18:08:05.903Z,74.50
2019-02-19T18:09:05.966Z,74.36
2019-02-19T18:10:05.861Z,74.60
2019-02-19T18:11:05.876Z,74.29
2019-02-19T18:12:05.841Z,73.98
2019-02-19T18:13:05.912Z,74.60
2019-02-19T18:14:05.820Z,74.60
2019-02-19T18:15:05.800Z,73.78
2019-02-19T18:16:05.825Z,74.08
2019-02-19T18:17:05.794Z,74.74
2019-02-19T18:18:05.812Z,74.91
2019-02-19T18:19:05.767Z,75.12
2019-02-19T18:20:05.758Z,75.15
2019-02-19T18:21:05.749Z,75.46
2019-02-19T18:22:05.735Z,75.46
2019-02-19T18:23:05.744Z,75.56
2019-02-19T18:24:05.772Z,75.81
2019-02-19T18:25:05.703Z,75.36
2019-02-19T18:26:05.693Z,75.56
2019-02-19T18:27:05.682Z,75.56
2019-02-19T18:28:05.690Z,75.91
2019-02-19T18:29:05.682Z,75.67
2019-02-19T18:30:05.835Z,75.36
2019-02-19T18:31:05.654Z,75.46
2019-02-19T18:32:05.689Z,75.46
2019-02-19T18:33:05.664Z,75.36
2019-02-19T18:34:07.777Z,75.46
2019-02-19T18:35:05.612Z,75.67
2019-02-19T18:36:05.673Z,75.46
2019-02-19T18:37:05.629Z,75.46
2019-02-19T18:38:05.595Z,75.36
2019-02-19T18:39:05.691Z,75.67
2019-02-19T18:40:05.603Z,75.67
2019-02-19T18:41:05.621Z,75.77
2019-02-19T18:42:05.529Z,75.60
2019-02-19T18:43:05.535Z,75.67
2019-02-19T18:44:05.558Z,75.49
2019-02-19T18:45:05.528Z,75.60
2019-02-19T18:46:05.489Z,76.29
2019-02-19T18:47:05.512Z,75.56
2019-02-19T18:48:05.494Z,75.60
2019-02-19T18:49:05.507Z,75.49
2019-02-19T18:50:05.510Z,75.49
2019-02-19T18:51:05.502Z,76.01
2019-02-19T18:52:05.436Z,75.81
2019-02-19T18:53:05.449Z,76.21
2019-02-19T18:54:05.518Z,76.32
2019-02-19T18:55:05.460Z,75.81
2019-02-19T18:56:05.454Z,75.77
2019-02-19T18:57:05.416Z,75.81
2019-02-19T18:58:05.368Z,75.70
2019-02-19T18:59:05.434Z,75.49
2019-02-19T19:00:05.349Z,76.12
2019-02-19T19:01:05.382Z,75.60
2019-02-19T19:02:05.325Z,75.81
2019-02-19T19:03:05.408Z,76.01
2019-02-19T19:04:05.584Z,76.12
2019-02-19T19:05:05.557Z,76.01
2019-02-19T19:06:05.731Z,76.32
2019-02-19T19:07:05.862Z,76.42
2019-02-19T19:08:05.417Z,76.12
2019-02-19T19:09:05.477Z,76.21
2019-02-19T19:10:05.334Z,76.21
2019-02-19T19:11:05.522Z,75.49
2019-02-19T19:12:05.339Z,76.01
2019-02-19T19:13:05.202Z,75.91
2019-02-19T19:14:05.289Z,76.42
2019-02-19T19:15:05.192Z,76.12
2019-02-19T19:16:05.346Z,76.01
2019-02-19T19:17:05.195Z,76.12
2019-02-19T19:18:05.160Z,76.04
2019-02-19T19:19:05.383Z,76.01
2019-02-19T19:20:05.232Z,76.01
2019-02-19T19:21:07.930Z,76.01
2019-02-19T19:22:05.162Z,75.60
2019-02-19T19:23:05.146Z,76.32
2019-02-19T19:24:05.201Z,75.49
2019-02-19T19:25:05.169Z,76.01
2019-02-19T19:26:05.191Z,76.21
2019-02-19T19:27:05.265Z,75.91
2019-02-19T19:28:05.202Z,75.81
2019-02-19T19:29:05.295Z,76.32
2019-02-19T19:30:05.153Z,75.91
2019-02-19T19:31:05.129Z,76.21
2019-02-19T19:32:05.074Z,76.25
2019-02-19T19:33:05.066Z,76.35
2019-02-19T19:34:04.994Z,76.04
2019-02-19T19:35:05.006Z,75.63
2019-02-19T19:36:04.978Z,76.15
2019-02-19T19:37:05.078Z,76.67
2019-02-19T19:38:05.018Z,76.46
2019-02-19T19:39:05.021Z,76.56
2019-02-19T19:40:05.004Z,76.73
2019-02-19T19:41:04.919Z,76.12
2019-02-19T19:42:04.935Z,75.60
2019-02-19T19:43:04.918Z,75.81
2019-02-19T19:44:04.892Z,75.91
2019-02-19T19:45:04.928Z,76.32
2019-02-19T19:46:04.866Z,76.25
2019-02-19T19:47:04.894Z,76.53
2019-02-19T19:48:04.894Z,76.94
2019-02-19T19:49:04.851Z,76.87
2019-02-19T19:50:04.881Z,76.46
2019-02-19T19:51:04.870Z,76.63
2019-02-19T19:52:04.801Z,76.63
2019-02-19T19:53:04.818Z,76.84
2019-02-19T19:54:04.789Z,76.32
2019-02-19T19:55:04.760Z,76.63
2019-02-19T19:56:04.927Z,76.73
2019-02-19T19:57:04.803Z,76.84
2019-02-19T19:58:04.837Z,76.53
2019-02-19T19:59:04.786Z,76.98
2019-02-19T20:00:04.759Z,76.67
2019-02-19T20:01:04.730Z,76.94
2019-02-19T20:02:04.742Z,77.08
2019-02-19T20:03:04.703Z,76.98
2019-02-19T20:04:04.690Z,77.18
2019-02-19T20:05:04.685Z,76.98
2019-02-19T20:06:05.124Z,77.08
2019-02-19T20:07:04.729Z,77.08
2019-02-19T20:08:04.726Z,77.18
2019-02-19T20:09:04.670Z,77.28
2019-02-19T20:10:04.814Z,77.70
2019-02-19T20:11:04.876Z,77.08
2019-02-19T20:12:04.638Z,77.35
2019-02-19T20:13:04.810Z,77.35
2019-02-19T20:14:04.850Z,77.56
2019-02-19T20:15:04.630Z,77.59
2019-02-19T20:16:04.694Z,77.70
2019-02-19T20:17:04.580Z,76.98
2019-02-19T20:18:04.587Z,77.66
2019-02-19T20:19:04.848Z,76.98
2019-02-19T20:20:06.394Z,76.98
2019-02-19T20:21:04.630Z,76.98
2019-02-19T20:22:08.259Z,77.08
2019-02-19T20:23:04.550Z,77.18
2019-02-19T20:24:04.522Z,76.98
2019-02-19T20:25:04.589Z,77.18
2019-02-19T20:26:04.698Z,77.80
2019-02-19T20:27:04.747Z,77.70
2019-02-19T20:28:06.363Z,76.87
2019-02-19T20:29:05.796Z,77.08
2019-02-19T20:30:04.460Z,77.08
2019-02-19T20:31:04.749Z,77.18
2019-02-19T20:32:07.872Z,77.73
2019-02-19T20:33:04.562Z,77.70
2019-02-19T20:34:04.433Z,76.87
2019-02-19T20:35:04.479Z,77.70
2019-02-19T20:36:04.484Z,77.59
2019-02-19T20:37:04.431Z,77.70
2019-02-19T20:38:04.603Z,76.98
2019-02-19T20:39:04.421Z,77.18
2019-02-19T20:40:07.330Z,77.18
2019-02-19T20:41:07.380Z,77.11
2019-02-19T20:42:04.395Z,77.11
2019-02-19T20:43:06.958Z,76.98
2019-02-19T20:44:05.219Z,77.08
2019-02-19T20:45:06.749Z,77.08
2019-02-19T20:46:04.293Z,77.11
2019-02-19T20:47:04.513Z,76.87
2019-02-19T20:48:04.289Z,77.22
2019-02-19T20:49:05.717Z,76.87
2019-02-19T20:50:06.443Z,77.01
2019-02-19T20:51:04.388Z,77.01
2019-02-19T20:52:04.303Z,76.35
2019-02-19T20:53:04.198Z,76.67
2019-02-19T20:54:05.288Z,76.60
2019-02-19T20:55:04.301Z,76.77
2019-02-19T20:56:04.378Z,77.08
2019-02-19T20:57:04.207Z,77.22
2019-02-19T20:58:04.206Z,76.60
2019-02-19T20:59:04.206Z,76.81
2019-02-19T21:00:04.132Z,76.81
2019-02-19T21:01:04.159Z,76.60
2019-02-19T21:02:04.098Z,76.46
2019-02-19T21:03:04.185Z,76.39
2019-02-19T21:04:04.295Z,76.90
2019-02-19T21:05:04.215Z,77.08
2019-02-19T21:06:04.203Z,76.70
2019-02-19T21:07:05.867Z,76.70
2019-02-19T21:08:04.568Z,77.01
2019-02-19T21:09:04.414Z,76.70
2019-02-19T21:11:05.054Z,76.29
2019-02-19T21:12:04.082Z,76.29
2019-02-19T21:13:04.121Z,76.70